Time;durP1;ratioP1;P1;durP2;ratioP2;P2;SDS_P1;SDS_P2;PMS_P1;PMS_P2;Temp;Humidity;BMP_temperature;BMP_pressure;BME280_temperature;BME280_humidity;BME280_pressure;Samples;Min_cycle;Max_cycle;Signal;HPM_P1;HPM_P2
2022/08/17 00:00:12;;;;;;;7.25;5.32;;;;;;;22.34;58.96;99269.13;5095988;28;20415;-63
2022/08/17 00:03:28;;;;;;;7.47;5.22;;;;;;;22.34;59.00;99274.38;5080244;28;20055;-63
2022/08/17 00:06:14;;;;;;;6.68;5.03;;;;;;;22.33;58.94;99262.97;5095771;28;20536;-63
2022/08/17 00:09:01;;;;;;;6.40;5.47;;;;;;;22.34;59.09;99263.84;5095739;28;20047;-63
2022/08/17 00:11:47;;;;;;;7.88;5.90;;;;;;;22.33;59.07;99265.59;5080659;28;20482;-63
2022/08/17 00:14:34;;;;;;;11.18;5.90;;;;;;;22.33;59.02;99260.31;5094935;28;20047;-63
2022/08/17 00:17:18;;;;;;;7.50;5.35;;;;;;;22.34;59.10;99258.56;5095538;28;20180;-63
2022/08/17 00:20:03;;;;;;;7.72;5.57;;;;;;;22.33;58.97;99257.69;5095319;28;20097;-62
2022/08/17 00:22:49;;;;;;;7.82;5.47;;;;;;;22.33;59.08;99256.84;5080205;28;20071;-62
2022/08/17 00:25:36;;;;;;;6.93;5.82;;;;;;;22.33;59.16;99248.91;5080459;28;20125;-62
2022/08/17 00:28:21;;;;;;;8.35;5.05;;;;;;;22.32;59.34;99248.03;5095184;28;20067;-62
2022/08/17 00:31:09;;;;;;;7.68;5.72;;;;;;;22.33;58.98;99248.91;5080175;28;20078;-62
2022/08/17 00:33:55;;;;;;;5.60;5.00;;;;;;;22.32;59.19;99242.78;5080318;28;20039;-61
2022/08/17 00:36:39;;;;;;;7.38;5.50;;;;;;;22.31;59.24;99238.41;5079706;28;20051;-62
2022/08/17 00:39:23;;;;;;;9.38;5.28;;;;;;;22.31;59.24;99234.94;5079947;28;20051;-62
2022/08/17 00:42:17;;;;;;;10.10;5.35;;;;;;;22.30;59.19;99233.22;5079954;28;20460;-61
2022/08/17 00:45:03;;;;;;;8.33;5.17;;;;;;;22.30;59.11;99238.50;5080029;28;20125;-63
2022/08/17 00:47:49;;;;;;;6.72;4.88;;;;;;;22.29;59.32;99227.06;5079826;28;20289;-63
2022/08/17 00:50:34;;;;;;;6.85;5.43;;;;;;;22.29;59.43;99227.06;5079979;28;20506;-61
2022/08/17 00:53:19;;;;;;;7.75;5.43;;;;;;;22.29;59.52;99221.78;5094938;28;20428;-61
2022/08/17 00:56:07;;;;;;;7.60;5.80;;;;;;;22.28;59.38;99222.72;5094903;28;20054;-61
2022/08/17 00:58:53;;;;;;;6.57;5.13;;;;;;;22.30;59.46;99220.03;5079696;28;20047;-61
2022/08/17 01:01:38;;;;;;;6.93;5.88;;;;;;;22.29;59.39;99223.59;5079434;28;20047;-61
2022/08/17 01:04:24;;;;;;;7.22;5.82;;;;;;;22.29;59.46;99219.16;5094995;28;20105;-61
2022/08/17 01:07:15;;;;;;;7.35;5.30;;;;;;;22.28;59.34;99220.06;5079617;28;20398;-63
2022/08/17 01:10:02;;;;;;;7.38;5.25;;;;;;;22.28;59.26;99217.44;5094681;28;20062;-63
2022/08/17 01:12:46;;;;;;;6.00;5.05;;;;;;;22.28;59.40;99211.31;5094606;28;20410;-63
2022/08/17 01:15:33;;;;;;;9.93;6.22;;;;;;;22.28;59.38;99216.59;5094720;28;20084;-63
2022/08/17 01:18:26;;;;;;;7.18;5.47;;;;;;;22.28;59.09;99216.59;5079615;28;20575;-63
2022/08/17 01:21:21;;;;;;;7.35;5.80;;;;;;;22.27;59.27;99209.59;5079273;28;20063;-61
2022/08/17 01:24:08;;;;;;;6.43;5.18;;;;;;;22.27;59.36;99213.09;5079278;28;20047;-61
2022/08/17 01:26:54;;;;;;;9.38;5.18;;;;;;;22.27;59.40;99207.81;5079241;28;20043;-62
2022/08/17 01:29:51;;;;;;;6.30;5.30;;;;;;;22.27;59.27;99213.09;5079314;28;20059;-62
2022/08/17 01:32:36;;;;;;;8.73;5.40;;;;;;;22.27;59.36;99196.41;5093917;28;20066;-61
2022/08/17 01:35:21;;;;;;;5.93;5.05;;;;;;;22.27;59.55;99206.97;5094066;28;20078;-62
2022/08/17 01:38:06;;;;;;;6.90;4.57;;;;;;;22.27;59.50;99201.69;5093947;28;20051;-61
2022/08/17 01:40:56;;;;;;;7.90;5.07;;;;;;;22.27;59.42;99204.31;5078775;28;20050;-62
2022/08/17 01:43:46;;;;;;;8.45;5.40;;;;;;;22.27;59.34;99206.97;5078752;28;20450;-61
2022/08/17 01:46:33;;;;;;;9.80;6.18;;;;;;;22.26;59.34;99203.47;5078944;28;20402;-61
2022/08/17 01:49:21;;;;;;;7.53;5.88;;;;;;;22.26;59.44;99205.25;5093896;28;20050;-63
2022/08/17 01:52:08;;;;;;;9.38;5.63;;;;;;;22.25;59.34;99208.81;5093942;28;20055;-61
2022/08/17 01:54:57;;;;;;;7.10;5.97;;;;;;;22.26;59.36;99199.97;5078713;28;20047;-63
2022/08/17 01:57:44;;;;;;;6.00;5.00;;;;;;;22.26;59.41;99199.97;5093726;28;20498;-63
2022/08/17 02:00:31;;;;;;;9.43;5.75;;;;;;;22.25;59.69;99199.13;5093539;28;20086;-63
2022/08/17 02:03:16;;;;;;;9.55;6.70;;;;;;;22.25;59.46;99195.63;5072379;28;20050;-63
2022/08/17 02:06:01;;;;;;;12.30;6.25;;;;;;;22.25;59.52;99193.84;5073463;28;20511;-63
2022/08/17 02:08:45;;;;;;;8.52;6.38;;;;;;;22.25;59.21;99192.97;5072907;28;20400;-63
2022/08/17 02:11:31;;;;;;;14.13;6.20;;;;;;;22.25;59.48;99187.69;5073529;28;20407;-63
2022/08/17 02:14:16;;;;;;;11.80;6.22;;;;;;;22.25;59.73;99187.69;5072743;28;20506;-63
2022/08/17 02:17:03;;;;;;;9.57;5.28;;;;;;;22.24;59.58;99192.13;5072921;28;20048;-63
2022/08/17 02:19:47;;;;;;;7.00;5.03;;;;;;;22.24;59.55;99189.50;5073275;28;20471;-63
2022/08/17 02:22:31;;;;;;;7.40;5.78;;;;;;;22.23;59.51;99189.56;5072577;28;20097;-63
2022/08/17 02:25:19;;;;;;;8.10;6.28;;;;;;;22.24;59.55;99192.13;5073159;28;20577;-62
2022/08/17 02:28:03;;;;;;;9.15;6.38;;;;;;;22.24;59.58;99192.13;5072628;28;20062;-62
2022/08/17 02:30:47;;;;;;;9.32;6.43;;;;;;;22.24;59.56;99191.25;5073483;28;20402;-61
2022/08/17 02:33:31;;;;;;;9.43;6.10;;;;;;;22.24;59.52;99180.72;5073336;28;20079;-61
2022/08/17 02:36:15;;;;;;;6.88;5.50;;;;;;;22.24;59.65;99185.97;5072893;28;20106;-62
2022/08/17 02:39:10;;;;;;;8.05;5.57;;;;;;;22.23;59.59;99187.78;5073340;28;20040;-61
2022/08/17 02:42:02;;;;;;;7.57;5.68;;;;;;;22.23;59.52;99194.81;5072459;28;20043;-62
2022/08/17 02:44:46;;;;;;;6.93;6.00;;;;;;;22.23;59.62;99189.56;5072251;28;20055;-62
2022/08/17 02:47:31;;;;;;;8.05;5.72;;;;;;;22.23;59.46;99192.19;5073019;28;20530;-61
2022/08/17 02:50:21;;;;;;;8.18;5.93;;;;;;;22.23;59.72;99197.47;5073435;28;20059;-61
2022/08/17 02:53:04;;;;;;;10.98;8.00;;;;;;;22.22;59.63;99209.81;5072268;28;20043;-61
2022/08/17 02:55:48;;;;;;;9.80;7.00;;;;;;;22.19;59.72;99234.53;5073363;28;20418;-62
2022/08/17 02:58:32;;;;;;;10.25;7.00;;;;;;;22.19;59.47;99224.00;5073776;28;20434;-62
2022/08/17 03:01:19;;;;;;;10.63;7.45;;;;;;;22.17;59.79;99257.53;5072863;28;20047;-62
2022/08/17 03:04:03;;;;;;;10.80;7.43;;;;;;;22.16;59.78;99253.19;5073002;28;20569;-61
2022/08/17 03:06:47;;;;;;;9.60;7.05;;;;;;;22.15;59.93;99243.53;5072103;28;20094;-62
2022/08/17 03:09:31;;;;;;;10.63;6.97;;;;;;;22.14;59.78;99262.94;5073034;28;20106;-62
2022/08/17 03:12:16;;;;;;;9.93;7.40;;;;;;;22.13;59.89;99257.72;5073084;28;20116;-62
2022/08/17 03:15:03;;;;;;;11.48;6.90;;;;;;;22.12;59.80;99248.94;5072120;28;20051;-61
2022/08/17 03:17:47;;;;;;;9.48;6.88;;;;;;;22.11;59.90;99257.78;5071926;28;20044;-62
2022/08/17 03:20:35;;;;;;;10.25;6.07;;;;;;;22.11;59.68;99259.59;5074917;28;20135;-61
2022/08/17 03:23:22;;;;;;;8.18;6.47;;;;;;;22.10;59.78;99264.00;5075370;28;20462;-62
2022/08/17 03:26:09;;;;;;;6.88;5.63;;;;;;;22.10;59.52;99260.50;5075263;28;20132;-63
2022/08/17 03:28:53;;;;;;;9.18;6.22;;;;;;;22.08;59.66;99260.56;5075461;28;20560;-62
2022/08/17 03:31:40;;;;;;;10.45;6.57;;;;;;;22.09;59.62;99266.72;5076323;28;20517;-61
2022/08/17 03:34:24;;;;;;;9.68;6.15;;;;;;;22.07;59.56;99274.66;5076264;28;20125;-63
2022/08/17 03:37:08;;;;;;;13.73;7.05;;;;;;;22.05;59.49;99266.84;5076081;28;20047;-63
2022/08/17 03:39:58;;;;;;;9.77;6.05;;;;;;;22.06;59.62;99270.31;5076166;28;20052;-63
2022/08/17 03:42:42;;;;;;;10.57;6.38;;;;;;;22.03;59.67;99268.69;5075085;28;20048;-63
2022/08/17 03:57:53;;;;;;;8.50;6.43;;;;;;;22.00;59.81;99273.25;5075528;28;20056;-61
2022/08/17 04:00:37;;;;;;;7.60;6.18;;;;;;;22.01;59.55;99277.59;5075769;28;20051;-62
2022/08/17 04:03:26;;;;;;;11.80;6.30;;;;;;;22.00;59.61;99279.34;5092951;28;20146;-62
2022/08/17 04:06:10;;;;;;;7.90;6.35;;;;;;;22.01;59.67;99277.59;5080802;28;20055;-62
2022/08/17 04:08:56;;;;;;;9.07;6.43;;;;;;;22.00;59.77;99289.91;5080718;28;20051;-62
2022/08/17 04:11:42;;;;;;;7.53;6.45;;;;;;;21.99;59.62;99311.09;5080611;28;20047;-62
2022/08/17 04:14:37;;;;;;;10.50;6.68;;;;;;;21.97;59.84;99312.94;5080817;28;20553;-61
2022/08/17 04:17:24;;;;;;;10.45;7.10;;;;;;;21.93;59.72;99314.84;5080659;28;20131;-62
2022/08/17 04:20:09;;;;;;;8.38;6.80;;;;;;;21.90;59.78;99320.25;5080211;28;20171;-62
2022/08/17 04:23:08;;;;;;;10.18;6.32;;;;;;;21.89;59.76;99297.44;5080398;28;20108;-60
2022/08/17 04:25:52;;;;;;;12.38;7.65;;;;;;;21.87;59.90;99305.44;5080484;28;20514;-62
2022/08/17 04:28:37;;;;;;;11.27;7.05;;;;;;;21.84;59.81;99294.13;5080606;28;20046;-61
2022/08/17 04:31:21;;;;;;;10.27;7.78;;;;;;;21.84;59.86;99308.19;5095207;28;20059;-62
2022/08/17 04:34:05;;;;;;;8.55;7.20;;;;;;;21.83;60.23;99309.09;5095651;28;20047;-61
2022/08/17 04:36:51;;;;;;;10.63;7.10;;;;;;;21.84;59.77;99307.31;5095786;28;20097;-62
2022/08/17 04:39:35;;;;;;;8.20;7.40;;;;;;;21.83;59.95;99311.75;5095025;28;20089;-60
2022/08/17 04:42:19;;;;;;;9.57;6.85;;;;;;;21.83;59.73;99314.38;5095024;28;20051;-61
2022/08/17 04:45:03;;;;;;;12.00;7.78;;;;;;;21.81;59.74;99312.72;5095314;28;20047;-61
2022/08/17 04:47:48;;;;;;;8.73;7.85;;;;;;;21.79;59.98;99314.59;5094924;28;20508;-62
2022/08/17 04:50:36;;;;;;;9.15;7.70;;;;;;;21.78;60.20;99311.06;5079982;28;20054;-61
2022/08/17 04:53:21;;;;;;;13.43;8.52;;;;;;;21.79;60.20;99312.78;5094889;28;20096;-61
2022/08/17 04:56:05;;;;;;;9.02;8.07;;;;;;;21.80;60.15;99313.66;5095225;28;20051;-62
2022/08/17 04:58:50;;;;;;;11.25;7.85;;;;;;;21.80;60.36;99314.50;5079633;28;20105;-61
2022/08/17 05:01:36;;;;;;;9.07;7.50;;;;;;;21.81;60.21;99318.00;5079031;28;20085;-61
2022/08/17 05:04:25;;;;;;;9.27;7.97;;;;;;;21.81;60.21;99308.31;5094589;28;20067;-63
2022/08/17 05:07:12;;;;;;;9.43;8.13;;;;;;;21.83;60.25;99314.38;5079752;28;20119;-63
2022/08/17 05:09:56;;;;;;;10.13;7.57;;;;;;;21.84;60.28;99316.09;5094601;28;20043;-63
2022/08/17 05:12:40;;;;;;;8.82;7.72;;;;;;;21.86;60.51;99316.03;5094461;28;20050;-63
2022/08/17 05:15:24;;;;;;;;;;;;;;;21.86;60.37;99319.53;5079746;28;20051;-63
2022/08/17 05:18:08;;;;;;;12.93;8.53;;;;;;;21.86;60.32;99318.66;5094685;28;19923;-64
2022/08/17 05:20:53;;;;;;;8.90;7.72;;;;;;;21.86;60.51;99314.25;5078734;28;20101;-63
2022/08/17 05:23:40;;;;;;;9.65;8.20;;;;;;;21.87;60.40;99310.69;5094389;28;20108;-62
2022/08/17 05:26:28;;;;;;;10.23;7.80;;;;;;;21.89;60.58;99308.81;5094600;28;20093;-63
2022/08/17 05:29:14;;;;;;;10.50;8.18;;;;;;;21.89;60.62;99295.63;5079206;28;20176;-64
2022/08/17 05:32:07;;;;;;;9.10;7.22;;;;;;;21.91;60.83;99300.88;5079314;28;20078;-64
2022/08/17 05:34:54;;;;;;;8.90;7.90;;;;;;;21.93;60.52;99298.16;5078847;28;20536;-62
2022/08/17 05:37:38;;;;;;;8.57;7.65;;;;;;;21.93;60.52;99298.16;5078864;28;20135;-62
2022/08/17 05:40:26;;;;;;;9.32;8.23;;;;;;;21.94;60.61;99284.91;5094280;28;20043;-61
2022/08/17 05:43:18;;;;;;;12.35;8.25;;;;;;;21.94;60.65;99284.91;5093387;28;20552;-62
2022/08/17 05:46:05;;;;;;;7.95;6.85;;;;;;;21.94;60.42;99277.00;5079003;28;20105;-61
2022/08/17 05:49:03;;;;;;;9.65;8.48;;;;;;;21.95;60.52;99277.84;5094279;28;20039;-62
2022/08/17 05:52:01;;;;;;;14.13;7.95;;;;;;;21.95;60.87;99280.47;5078607;28;20063;-63
2022/08/17 05:54:45;;;;;;;9.32;8.25;;;;;;;21.94;60.65;99269.09;5078550;28;20089;-63
2022/08/17 05:57:40;;;;;;;8.88;7.53;;;;;;;21.96;60.73;99282.19;5093780;28;20545;-63
2022/08/17 06:00:31;;;;;;;12.30;7.88;;;;;;;21.95;61.08;99277.84;5078514;28;20089;-62
2022/08/17 06:03:34;;;;;;;9.20;8.15;;;;;;;21.95;60.77;99289.28;5072137;28;20060;-61
2022/08/17 06:06:33;;;;;;;9.18;8.07;;;;;;;21.94;60.96;99299.88;5072813;28;20514;-62
2022/08/17 06:09:18;;;;;;;10.30;8.93;;;;;;;21.93;61.12;99304.31;5072685;28;20090;-61
2022/08/17 06:12:20;;;;;;;10.52;7.57;;;;;;;21.93;60.90;99303.44;5073709;28;20102;-62
2022/08/17 06:15:51;;;;;;;10.43;7.57;;;;;;;21.93;60.91;99301.66;5072969;28;20066;-62
2022/08/17 06:18:40;;;;;;;8.45;7.45;;;;;;;21.92;61.42;99293.81;5051173;28;20546;-63
2022/08/17 06:21:31;;;;;;;10.65;7.72;;;;;;;21.91;61.10;99303.50;5072601;28;20051;-63
2022/08/17 06:24:37;;;;;;;11.25;8.25;;;;;;;21.92;61.10;99317.53;5073644;28;20063;-63
2022/08/17 06:27:29;;;;;;;9.02;8.00;;;;;;;21.91;61.08;99314.06;5073260;28;20086;-63
2022/08/17 06:30:24;;;;;;;10.07;7.97;;;;;;;21.93;61.21;99335.09;5072641;28;20510;-63
2022/08/17 06:33:20;;;;;;;8.20;7.40;;;;;;;21.93;61.13;99321.91;5073284;28;20514;-63
2022/08/17 06:36:33;;;;;;;11.73;7.72;;;;;;;21.94;61.21;99336.81;5073562;28;20052;-63
2022/08/17 06:39:35;;;;;;;11.48;9.30;;;;;;;21.93;61.24;99353.53;5072011;28;20094;-63
2022/08/17 06:42:25;;;;;;;12.02;8.27;;;;;;;21.90;61.32;99359.81;5072190;28;20090;-63
2022/08/17 06:45:18;;;;;;;10.35;8.07;;;;;;;21.89;61.31;99363.38;5072036;28;20102;-64
2022/08/17 06:48:23;;;;;;;9.32;8.25;;;;;;;21.87;61.46;99363.44;5073322;28;20514;-64
2022/08/17 06:51:36;;;;;;;11.43;9.82;;;;;;;21.87;61.25;99366.09;5072196;28;20082;-63
2022/08/17 06:55:08;;;;;;;10.75;9.05;;;;;;;21.88;61.40;99364.28;5062091;28;20398;-63
2022/08/17 06:58:00;;;;;;;13.57;9.77;;;;;;;21.86;61.59;99359.09;5063050;28;20050;-63
2022/08/17 07:00:46;;;;;;;11.45;9.52;;;;;;;21.87;61.53;99370.50;5075849;28;20055;-63
2022/08/17 07:03:44;;;;;;;12.63;9.45;;;;;;;21.86;61.59;99372.28;5075995;28;20079;-63
2022/08/17 07:10:12;;;;;;;12.60;9.20;;;;;;;21.84;61.57;99371.47;5076830;28;20073;-62
2022/08/17 07:13:10;;;;;;;10.73;8.90;;;;;;;21.84;61.67;99368.84;5075840;28;20067;-63
2022/08/17 07:16:05;;;;;;;10.48;8.43;;;;;;;21.83;61.70;99377.69;5076632;28;20102;-61
2022/08/17 07:18:49;;;;;;;;;;;;;;;21.80;61.61;99371.69;5076738;28;20130;-62
2022/08/17 07:22:00;;;;;;;9.57;8.60;;;;;;;21.80;61.75;99369.88;5076411;28;20297;-61
2022/08/17 07:24:51;;;;;;;9.68;8.10;;;;;;;21.82;61.51;99381.22;5076349;28;20047;-63
2022/08/17 07:27:44;;;;;;;9.55;8.55;;;;;;;21.81;61.77;99379.53;5075369;28;20052;-63
2022/08/17 07:30:44;;;;;;;10.93;9.00;;;;;;;21.82;61.89;99386.50;5075584;28;20507;-63
2022/08/17 07:33:31;;;;;;;14.65;9.52;;;;;;;21.81;61.74;99397.09;5075397;28;20051;-63
2022/08/17 07:36:24;;;;;;;10.27;9.05;;;;;;;21.80;61.71;99401.53;5075456;28;20132;-64
2022/08/17 07:39:09;;;;;;;10.60;9.43;;;;;;;21.80;62.18;99405.97;5075219;28;20059;-63
2022/08/17 07:42:02;;;;;;;9.50;8.50;;;;;;;21.79;62.13;99397.19;5075074;28;20407;-63
2022/08/17 07:44:53;;;;;;;10.68;9.20;;;;;;;21.80;62.01;99393.63;5075267;28;20047;-63
2022/08/17 07:50:40;;;;;;;11.65;9.70;;;;;;;21.78;62.08;99416.56;5075914;28;20052;-63
2022/08/17 07:53:25;;;;;;;12.07;10.23;;;;;;;21.78;62.10;99436.81;5075156;28;20052;-62
2022/08/17 07:56:14;;;;;;;10.82;8.95;;;;;;;21.78;62.22;99447.34;5075095;28;20047;-63
2022/08/17 07:59:07;;;;;;;12.25;9.40;;;;;;;21.78;62.16;99456.13;5075103;28;20134;-64
2022/08/17 08:02:01;;;;;;;14.30;10.10;;;;;;;21.79;62.14;99438.53;5079313;28;20178;-64
2022/08/17 08:04:50;;;;;;;16.87;11.30;;;;;;;21.81;62.26;99436.66;5095309;28;20047;-64
2022/08/17 08:07:58;;;;;;;10.27;9.25;;;;;;;21.80;62.37;99432.34;5080899;28;20285;-64
2022/08/17 08:10:43;;;;;;;10.80;9.00;;;;;;;21.80;62.25;99432.34;5096140;28;20544;-64
2022/08/17 08:13:31;;;;;;;13.18;10.23;;;;;;;21.81;62.39;99439.28;5095732;28;20043;-64
2022/08/17 08:16:29;;;;;;;12.10;10.02;;;;;;;21.83;62.43;99451.53;5080660;28;20129;-63
2022/08/17 08:19:16;;;;;;;13.43;10.13;;;;;;;21.85;62.58;99459.38;5095584;28;20078;-64
2022/08/17 08:22:11;;;;;;;18.13;10.45;;;;;;;21.85;62.67;99462.88;5080546;28;20125;-64
2022/08/17 08:25:21;;;;;;;13.70;10.77;;;;;;;21.86;62.96;99471.63;5095841;28;20131;-63
2022/08/17 08:28:18;;;;;;;12.80;10.32;;;;;;;21.86;62.76;99463.72;5080221;28;20098;-63
2022/08/17 08:31:13;;;;;;;12.80;10.48;;;;;;;21.84;62.55;99445.34;5080106;28;21243;-63
2022/08/17 08:34:17;;;;;;;12.68;10.25;;;;;;;21.80;62.70;99441.09;5080423;28;20543;-63
2022/08/17 08:37:03;;;;;;;10.90;9.60;;;;;;;21.83;63.08;99459.44;5080180;28;20046;-63
2022/08/17 08:40:25;;;;;;;13.20;9.98;;;;;;;21.83;62.82;99454.16;5095303;28;20043;-63
2022/08/17 08:43:36;;;;;;;13.98;9.88;;;;;;;21.80;62.72;99464.81;5095375;28;20053;-63
2022/08/17 08:46:39;;;;;;;10.48;9.00;;;;;;;21.79;62.73;99467.53;5079908;28;20047;-63
2022/08/17 08:49:45;;;;;;;11.95;9.32;;;;;;;21.79;62.89;99471.03;5095302;28;20043;-63
2022/08/17 08:52:48;;;;;;;10.70;8.73;;;;;;;21.78;63.07;99460.53;5079705;28;20054;-63
2022/08/17 08:56:10;;;;;;;10.75;9.27;;;;;;;21.77;63.00;99459.66;5094912;28;20047;-64
2022/08/17 08:59:28;;;;;;;10.10;8.88;;;;;;;21.76;62.91;99463.22;5071105;28;20050;-63
2022/08/17 09:02:34;;;;;;;9.50;8.48;;;;;;;21.72;62.85;99462.50;5079076;28;20067;-63
2022/08/17 09:05:55;;;;;;;12.57;10.07;;;;;;;21.72;63.05;99462.50;5094881;28;20131;-63
2022/08/17 09:08:52;;;;;;;11.60;9.15;;;;;;;21.71;63.04;99462.56;5079373;28;20046;-63
2022/08/17 09:11:46;;;;;;;11.23;9.75;;;;;;;21.70;63.02;99466.97;5079372;28;20086;-63
2022/08/17 09:14:39;;;;;;;10.40;8.98;;;;;;;21.69;63.00;99464.41;5079444;28;20118;-63
2022/08/17 09:17:51;;;;;;;12.00;9.07;;;;;;;21.68;62.81;99460.03;5078593;28;20093;-64
2022/08/17 09:20:55;;;;;;;12.45;9.73;;;;;;;21.67;62.95;99459.16;5094399;28;20563;-64
2022/08/17 09:23:58;;;;;;;14.65;8.98;;;;;;;21.66;63.11;99453.97;5094284;28;20062;-64
2022/08/17 09:26:53;;;;;;;9.15;8.10;;;;;;;21.65;63.16;99454.88;5094217;28;20113;-64
2022/08/17 09:29:56;;;;;;;10.60;9.20;;;;;;;21.65;63.03;99461.00;5094096;28;20047;-64
2022/08/17 09:32:57;;;;;;;9.75;8.27;;;;;;;21.65;63.51;99481.25;5094141;28;20047;-64
2022/08/17 09:35:50;;;;;;;10.38;9.05;;;;;;;21.67;63.21;99475.00;5079033;28;20126;-63
2022/08/17 09:38:40;;;;;;;9.10;7.53;;;;;;;21.69;63.26;99482.84;5079133;28;20545;-64
2022/08/17 09:41:44;;;;;;;11.00;8.10;;;;;;;21.70;63.23;99489.84;5078939;28;20047;-63
2022/08/17 09:44:41;;;;;;;8.98;7.75;;;;;;;21.70;63.32;99487.22;5078725;28;20047;-63
2022/08/17 09:47:44;;;;;;;10.60;8.90;;;;;;;21.71;63.27;99489.78;5078862;28;20102;-64
2022/08/17 09:50:39;;;;;;;10.15;8.43;;;;;;;21.72;63.47;99474.84;5078890;28;20051;-64
2022/08/17 09:53:26;;;;;;;10.15;8.98;;;;;;;21.70;63.40;99481.94;5078735;28;20142;-64
2022/08/17 09:56:16;;;;;;;9.52;8.20;;;;;;;21.70;63.46;99489.84;5094094;28;20133;-62
2022/08/17 09:59:31;;;;;;;9.57;8.25;;;;;;;21.71;63.53;99496.84;5078640;28;20185;-64
2022/08/17 10:02:52;;;;;;;9.07;7.85;;;;;;;21.72;63.41;99495.94;5093639;28;20055;-64
2022/08/17 10:05:51;;;;;;;9.05;7.90;;;;;;;21.71;63.27;99494.22;5093979;28;20513;-64
2022/08/17 10:08:51;;;;;;;9.32;7.55;;;;;;;21.71;63.59;99492.41;5078665;28;20097;-64
2022/08/17 10:15:17;;;;;;;7.90;6.70;;;;;;;21.70;63.58;99490.69;5093636;28;20047;-63
2022/08/17 10:18:06;;;;;;;;;;;;;;;21.69;63.35;99493.41;5093964;28;20145;-63
2022/08/17 10:27:56;;;;;;;8.40;6.70;;;;;;;21.70;63.57;99488.06;5093957;28;20059;-65
2022/08/17 10:30:55;;;;;;;10.40;7.00;;;;;;;21.70;63.22;99497.75;5082635;28;20118;-64
2022/08/17 10:34:24;;;;;;;7.97;6.93;;;;;;;21.69;63.36;99494.25;5082524;28;20509;-63
2022/08/17 10:37:27;;;;;;;7.40;6.60;;;;;;;21.68;63.40;99500.44;5082537;28;20093;-63
2022/08/17 10:40:20;;;;;;;8.40;6.32;;;;;;;21.67;63.22;99508.41;5082355;28;20392;-64
2022/08/17 10:43:40;;;;;;;9.00;7.15;;;;;;;21.66;63.36;99522.53;5097621;28;20069;-64
2022/08/17 10:46:50;;;;;;;8.15;6.25;;;;;;;21.64;63.37;99519.06;5097705;28;20453;-64
2022/08/17 10:49:46;;;;;;;9.20;6.88;;;;;;;21.63;63.52;99518.22;5081846;28;20506;-63
2022/08/17 10:52:47;;;;;;;8.82;6.82;;;;;;;21.64;63.28;99516.44;5097266;28;20086;-63
2022/08/17 10:55:31;;;;;;;8.88;6.60;;;;;;;21.64;63.45;99516.44;5082180;28;20051;-63
2022/08/17 10:58:20;;;;;;;9.80;7.03;;;;;;;21.63;63.28;99515.59;5096982;28;20097;-63
2022/08/17 11:01:07;;;;;;;7.82;6.60;;;;;;;21.65;63.52;99526.06;5097032;28;20047;-63
2022/08/17 11:04:07;;;;;;;7.68;6.88;;;;;;;21.64;63.32;99521.72;5081854;28;20138;-63
2022/08/17 11:07:21;;;;;;;6.90;6.20;;;;;;;21.62;63.46;99532.34;5081744;28;20517;-62
2022/08/17 11:10:37;;;;;;;9.23;6.53;;;;;;;21.62;63.58;99527.06;5081926;28;20059;-63
2022/08/17 11:13:59;;;;;;;8.60;7.03;;;;;;;21.62;63.66;99534.09;5081574;28;20051;-64
2022/08/17 11:17:05;;;;;;;8.85;6.68;;;;;;;21.63;63.54;99530.53;5081611;28;20051;-63
2022/08/17 11:20:23;;;;;;;8.65;7.15;;;;;;;21.63;63.65;99536.69;5096947;28;20090;-64
2022/08/17 11:23:17;;;;;;;8.77;7.13;;;;;;;21.63;63.54;99538.44;5081399;28;20568;-63
2022/08/17 11:26:19;;;;;;;7.57;6.60;;;;;;;21.63;63.75;99539.31;5081564;28;20058;-63
2022/08/17 11:29:20;;;;;;;7.80;6.97;;;;;;;21.63;63.67;99525.25;5067891;28;20407;-62
2022/08/17 11:32:12;;;;;;;7.93;6.70;;;;;;;21.63;63.83;99527.91;5096605;28;20410;-63
2022/08/17 11:35:19;;;;;;;7.60;6.65;;;;;;;21.63;63.71;99527.91;5081869;28;20470;-63
2022/08/17 11:38:09;;;;;;;9.38;7.35;;;;;;;21.63;63.58;99523.50;5081343;28;20085;-62
2022/08/17 11:41:08;;;;;;;9.63;7.03;;;;;;;21.62;63.54;99527.06;5080007;28;20513;-64
2022/08/17 11:44:28;;;;;;;8.40;6.80;;;;;;;21.59;63.53;99538.53;5081308;28;20082;-63
2022/08/17 11:54:05;;;;;;;10.75;7.30;;;;;;;21.62;63.91;99539.38;5096273;28;20059;-61
2022/08/17 11:56:52;;;;;;;8.25;7.30;;;;;;;21.62;64.05;99540.25;5081044;28;20051;-62
2022/08/17 11:59:40;;;;;;;9.80;8.02;;;;;;;21.62;63.91;99547.28;5096108;28;20521;-62
2022/08/17 12:02:41;;;;;;;9.10;8.15;;;;;;;21.62;63.98;99548.16;5074832;28;20517;-62
2022/08/17 12:05:31;;;;;;;8.80;7.55;;;;;;;21.63;63.75;99549.88;5074901;28;20537;-62
2022/08/17 12:08:26;;;;;;;9.18;7.93;;;;;;;21.62;63.69;99549.91;5075877;28;20564;-62
2022/08/17 12:11:52;;;;;;;8.93;7.45;;;;;;;21.61;63.90;99546.44;5075467;28;20056;-62
2022/08/17 12:14:56;;;;;;;7.75;6.88;;;;;;;21.61;63.87;99541.16;5074579;28;20067;-63
2022/08/17 12:17:54;;;;;;;8.73;7.82;;;;;;;21.62;63.86;99542.00;5074761;28;20510;-63
2022/08/17 12:20:42;;;;;;;8.50;7.60;;;;;;;21.62;63.94;99534.97;5075472;28;20047;-62
2022/08/17 12:24:04;;;;;;;8.23;7.13;;;;;;;21.63;63.86;99528.78;5074370;28;20202;-63
2022/08/17 12:27:04;;;;;;;14.68;7.30;;;;;;;21.62;63.74;99528.81;5063963;28;20097;-63
2022/08/17 12:29:57;;;;;;;9.07;7.85;;;;;;;21.60;63.97;99529.72;5074305;28;20127;-64
2022/08/17 12:32:48;;;;;;;9.20;8.07;;;;;;;21.62;63.97;99529.69;5075136;28;20102;-62
2022/08/17 12:35:43;;;;;;;10.70;8.95;;;;;;;21.62;63.82;99528.81;5075327;28;20645;-62
2022/08/17 12:38:33;;;;;;;9.07;8.18;;;;;;;21.62;63.96;99518.28;5075201;28;20519;-63
2022/08/17 12:41:39;;;;;;;11.05;7.95;;;;;;;21.62;63.81;99515.63;5075016;28;20186;-62
2022/08/17 12:44:33;;;;;;;10.23;8.00;;;;;;;21.59;63.87;99522.72;5074050;28;20079;-64
2022/08/17 12:47:23;;;;;;;10.48;8.82;;;;;;;21.59;63.83;99517.44;5073839;28;20162;-62
2022/08/17 12:50:14;;;;;;;9.70;8.02;;;;;;;21.59;63.81;99516.59;5074018;28;20114;-63
2022/08/17 12:53:04;;;;;;;9.38;8.48;;;;;;;21.60;63.88;99516.56;5073836;28;20094;-62
2022/08/17 12:55:53;;;;;;;10.18;8.65;;;;;;;21.60;63.86;99508.66;5073677;28;20568;-62
2022/08/17 12:58:55;;;;;;;11.05;8.35;;;;;;;21.60;63.87;99508.66;5073948;28;20194;-64
2022/08/17 13:01:42;;;;;;;12.10;9.65;;;;;;;21.60;63.94;99508.66;5076444;28;20126;-62
2022/08/17 13:04:31;;;;;;;9.88;8.40;;;;;;;21.62;64.04;99513.00;5094554;28;20528;-63
2022/08/17 13:07:41;;;;;;;9.98;8.95;;;;;;;21.62;63.89;99505.09;5095037;28;20077;-62
2022/08/17 13:10:34;;;;;;;11.95;9.43;;;;;;;21.64;63.83;99508.53;5094889;28;20407;-63
2022/08/17 13:13:31;;;;;;;11.95;10.32;;;;;;;21.65;64.04;99504.97;5079345;28;20142;-63
2022/08/17 13:16:19;;;;;;;9.70;8.70;;;;;;;21.66;63.80;99504.06;5079669;28;20533;-63
2022/08/17 13:19:24;;;;;;;10.02;8.93;;;;;;;21.67;63.84;99498.72;5079514;28;20047;-61
2022/08/17 13:22:11;;;;;;;10.70;9.35;;;;;;;21.68;63.80;99502.22;5094201;28;20548;-61
2022/08/17 13:25:08;;;;;;;11.45;9.35;;;;;;;21.67;63.62;99497.88;5079494;28;20522;-61
2022/08/17 13:27:55;;;;;;;10.57;9.48;;;;;;;21.67;63.71;99497.88;5079280;28;20574;-62
2022/08/17 13:30:42;;;;;;;11.68;9.10;;;;;;;21.67;63.75;99498.72;5079110;28;20093;-62
2022/08/17 13:33:34;;;;;;;11.45;10.25;;;;;;;21.68;63.76;99503.06;5079068;28;20050;-62
2022/08/17 13:36:28;;;;;;;10.80;9.48;;;;;;;21.69;63.89;99501.31;5094012;28;20046;-63
2022/08/17 13:39:22;;;;;;;11.38;10.15;;;;;;;21.69;63.79;99496.88;5078946;28;20055;-63
2022/08/17 13:42:42;;;;;;;10.88;9.77;;;;;;;21.70;63.74;99495.97;5094148;28;20509;-62
2022/08/17 13:45:36;;;;;;;11.85;8.93;;;;;;;21.70;63.91;99489.84;5079043;28;20094;-63
2022/08/17 13:48:25;;;;;;;11.75;9.18;;;;;;;21.70;63.68;99495.13;5094018;28;20119;-61
2022/08/17 13:51:22;;;;;;;11.63;9.30;;;;;;;21.71;63.47;99499.47;5078907;28;20058;-62
2022/08/17 13:54:25;;;;;;;11.43;9.98;;;;;;;21.71;63.46;99497.69;5078792;28;20101;-61
2022/08/17 13:57:20;;;;;;;10.93;9.82;;;;;;;21.71;63.75;99500.31;5079068;28;20047;-61
2022/08/17 14:00:15;;;;;;;11.27;9.93;;;;;;;21.71;63.70;99492.41;5078609;28;20121;-62
2022/08/17 14:03:03;;;;;;;13.07;11.68;;;;;;;21.73;63.78;99481.78;5092803;28;20054;-62
2022/08/17 14:05:50;;;;;;;12.18;10.82;;;;;;;21.74;63.73;99483.50;5078833;28;20097;-62